createdAt,value
2023-03-13T00:01:02.930Z,5.53
2023-03-13T00:03:30.699Z,7.07
2023-03-13T00:05:59.196Z,7.20
2023-03-13T00:08:30.338Z,6.07
2023-03-13T00:10:59.525Z,6.88
2023-03-13T00:13:27.227Z,8.05
2023-03-13T00:16:01.681Z,5.82
2023-03-13T00:18:29.512Z,7.55
2023-03-13T00:21:01.008Z,7.13
2023-03-13T00:23:29.226Z,7.05
2023-03-13T00:25:59.558Z,8.30
2023-03-13T00:28:32.327Z,7.47
2023-03-13T00:31:04.997Z,10.38
2023-03-13T00:33:34.208Z,7.95
2023-03-13T00:36:02.876Z,6.88
2023-03-13T00:38:31.449Z,8.32
2023-03-13T00:41:06.250Z,8.18
2023-03-13T00:43:35.172Z,8.25
2023-03-13T00:46:03.309Z,6.93
2023-03-13T00:48:31.668Z,7.38
2023-03-13T00:51:00.158Z,8.30
2023-03-13T00:53:28.124Z,8.25
2023-03-13T00:55:57.520Z,7.82
2023-03-13T00:58:28.150Z,7.25
2023-03-13T01:00:56.968Z,8.13
2023-03-13T01:03:26.152Z,8.05
2023-03-13T01:05:58.583Z,6.70
2023-03-13T01:08:28.348Z,7.45
2023-03-13T01:11:00.773Z,6.72
2023-03-13T01:13:32.946Z,7.43
2023-03-13T01:16:04.095Z,7.28
2023-03-13T01:18:32.255Z,5.20
2023-03-13T01:21:00.112Z,5.75
2023-03-13T01:23:28.407Z,8.13
2023-03-13T01:25:57.139Z,4.68
2023-03-13T01:28:26.748Z,8.50
2023-03-13T01:30:56.961Z,6.82
2023-03-13T01:33:24.864Z,6.78
2023-03-13T01:35:52.703Z,6.32
2023-03-13T01:38:20.678Z,7.30
2023-03-13T01:40:50.139Z,5.90
2023-03-13T01:43:28.096Z,10.40
2023-03-13T01:46:03.609Z,5.53
2023-03-13T01:48:44.628Z,6.55
2023-03-13T01:51:17.938Z,6.68
2023-03-13T01:53:50.961Z,6.40
2023-03-13T01:58:51.965Z,5.20
2023-03-13T02:01:21.817Z,6.43
2023-03-13T02:03:51.020Z,6.38
2023-03-13T02:06:19.536Z,5.03
2023-03-13T02:08:51.708Z,7.75
2023-03-13T02:11:41.633Z,5.95
2023-03-13T02:14:10.690Z,4.95
2023-03-13T02:16:40.808Z,5.15
2023-03-13T02:19:18.308Z,7.03
2023-03-13T02:21:51.185Z,5.22
2023-03-13T02:26:52.274Z,4.68
2023-03-13T02:29:20.149Z,5.43
2023-03-13T02:31:49.008Z,4.75
2023-03-13T02:34:21.987Z,5.43
2023-03-13T02:39:23.513Z,3.97
2023-03-13T02:41:54.228Z,3.97
2023-03-13T02:44:22.570Z,4.20
2023-03-13T02:46:53.297Z,3.90
2023-03-13T02:49:28.349Z,5.40
2023-03-13T02:52:01.030Z,6.43
2023-03-13T02:54:34.373Z,4.53
2023-03-13T02:57:05.825Z,3.40
2023-03-13T02:59:34.754Z,3.22
2023-03-13T03:02:03.240Z,3.83
2023-03-13T03:04:31.620Z,3.95
2023-03-13T03:06:59.743Z,3.20
2023-03-13T03:09:27.732Z,3.42
2023-03-13T03:11:59.173Z,3.25
2023-03-13T03:14:30.543Z,4.35
2023-03-13T03:16:58.631Z,3.55
2023-03-13T03:19:27.827Z,3.00
2023-03-13T03:21:55.747Z,4.15
2023-03-13T03:24:23.768Z,3.28
2023-03-13T03:26:51.646Z,2.35
2023-03-13T03:29:27.709Z,3.20
2023-03-13T03:31:58.337Z,3.28
2023-03-13T03:34:26.620Z,1.88
2023-03-13T03:36:55.184Z,3.25
2023-03-13T03:39:23.159Z,1.42
2023-03-13T03:41:51.373Z,2.65
2023-03-13T03:44:19.286Z,1.48
2023-03-13T03:46:54.378Z,2.08
2023-03-13T03:49:24.971Z,2.47
2023-03-13T03:51:53.173Z,1.75
2023-03-13T03:54:27.460Z,1.40
2023-03-13T03:56:56.164Z,1.63
2023-03-13T03:59:24.052Z,2.35
2023-03-13T04:01:59.793Z,2.28
2023-03-13T04:04:31.451Z,1.40
2023-03-13T04:07:04.540Z,1.95
2023-03-13T04:09:34.006Z,1.58
2023-03-13T04:12:03.546Z,2.65
2023-03-13T04:14:35.688Z,1.50
2023-03-13T04:17:07.157Z,3.05
2023-03-13T04:19:36.549Z,1.38
2023-03-13T04:22:04.512Z,2.20
2023-03-13T04:24:33.018Z,1.33
2023-03-13T04:27:02.553Z,1.33
2023-03-13T04:29:31.160Z,1.95
2023-03-13T04:32:14.542Z,0.68
2023-03-13T04:35:03.052Z,1.33
2023-03-13T04:37:49.617Z,1.63
2023-03-13T04:43:39.115Z,1.20
2023-03-13T04:46:13.999Z,1.15
2023-03-13T04:49:06.550Z,2.45
2023-03-13T04:52:00.393Z,1.25
2023-03-13T04:54:28.612Z,1.80
2023-03-13T04:57:26.101Z,1.33
2023-03-13T05:00:00.151Z,1.60
2023-03-13T05:02:47.231Z,2.38
2023-03-13T05:05:36.281Z,1.67
2023-03-13T05:08:20.226Z,1.20
2023-03-13T05:11:17.134Z,1.02
2023-03-13T05:14:00.765Z,1.27
2023-03-13T05:16:31.458Z,1.13
2023-03-13T05:19:19.464Z,1.15
2023-03-13T05:22:13.989Z,1.30
2023-03-13T05:24:58.735Z,1.80
2023-03-13T05:27:47.152Z,1.35
2023-03-13T05:30:35.405Z,1.67
2023-03-13T05:33:21.837Z,1.17
2023-03-13T05:36:02.754Z,1.40
2023-03-13T05:38:42.872Z,1.67
2023-03-13T05:41:41.010Z,1.15
2023-03-13T05:44:27.886Z,1.17
2023-03-13T05:47:17.245Z,2.03
2023-03-13T05:49:57.002Z,1.50
2023-03-13T05:52:37.968Z,0.60
2023-03-13T05:55:29.077Z,2.00
2023-03-13T05:58:21.861Z,2.13
2023-03-13T06:00:57.453Z,2.47
2023-03-13T06:03:46.061Z,3.40
2023-03-13T06:06:15.525Z,2.20
2023-03-13T06:08:53.028Z,2.28
2023-03-13T06:11:22.115Z,2.08
2023-03-13T06:13:52.365Z,2.03
2023-03-13T06:16:49.367Z,1.95
2023-03-13T06:19:20.047Z,1.33
2023-03-13T06:21:47.799Z,1.60
2023-03-13T06:24:15.592Z,1.90
2023-03-13T06:26:43.517Z,1.63
2023-03-13T06:29:12.901Z,1.77
2023-03-13T06:31:40.915Z,1.48
2023-03-13T06:34:09.651Z,1.75
2023-03-13T06:36:37.576Z,1.67
2023-03-13T06:39:05.774Z,2.63
2023-03-13T06:41:34.036Z,1.65
2023-03-13T06:44:01.758Z,1.90
2023-03-13T06:46:31.510Z,1.25
2023-03-13T06:49:00.794Z,2.75
2023-03-13T06:51:28.763Z,1.50
2023-03-13T06:53:56.681Z,2.50
2023-03-13T06:56:25.074Z,1.55
2023-03-13T06:58:52.814Z,1.67
2023-03-13T07:01:21.004Z,1.70
2023-03-13T07:03:50.489Z,2.15
2023-03-13T07:06:18.970Z,1.95
2023-03-13T07:08:46.851Z,2.30
2023-03-13T07:11:17.092Z,2.97
2023-03-13T07:13:45.035Z,2.60
2023-03-13T07:16:14.393Z,2.60
2023-03-13T07:18:44.503Z,3.45
2023-03-13T07:21:14.618Z,2.65
2023-03-13T07:23:42.504Z,2.05
2023-03-13T07:26:14.424Z,2.40
2023-03-13T07:28:42.922Z,2.90
2023-03-13T07:31:13.464Z,2.85
2023-03-13T07:33:41.387Z,2.70
2023-03-13T07:36:10.516Z,3.83
2023-03-13T07:38:39.806Z,2.90
2023-03-13T07:41:07.936Z,2.65
2023-03-13T07:43:35.839Z,2.95
2023-03-13T07:46:06.160Z,3.17
2023-03-13T07:48:36.261Z,3.72
2023-03-13T07:51:05.694Z,3.60
2023-03-13T07:53:33.622Z,3.60
2023-03-13T07:56:05.433Z,2.85
2023-03-13T07:58:35.360Z,4.35
2023-03-13T08:01:08.929Z,4.22
2023-03-13T08:03:36.890Z,4.60
2023-03-13T08:06:06.981Z,5.47
2023-03-13T08:08:35.424Z,3.92
2023-03-13T08:11:07.745Z,4.10
2023-03-13T08:13:36.631Z,3.47
2023-03-13T08:16:06.516Z,3.58
2023-03-13T08:18:35.748Z,5.07
2023-03-13T08:21:04.878Z,3.45
2023-03-13T08:23:32.989Z,3.45
2023-03-13T08:26:07.374Z,3.63
2023-03-13T08:28:36.435Z,2.58
2023-03-13T08:31:12.640Z,4.13
2023-03-13T08:33:41.225Z,5.35
2023-03-13T08:36:11.408Z,4.07
2023-03-13T08:38:39.855Z,3.90
2023-03-13T08:41:09.141Z,4.13
2023-03-13T08:43:37.170Z,6.35
2023-03-13T08:46:05.244Z,3.15
2023-03-13T08:48:33.197Z,3.15
2023-03-13T08:51:02.921Z,3.15
2023-03-13T08:53:31.281Z,4.82
2023-03-13T08:55:59.182Z,3.95
2023-03-13T08:58:29.162Z,3.63
2023-03-13T09:01:03.201Z,2.83
2023-03-13T09:03:31.082Z,3.72
2023-03-13T09:05:59.239Z,2.08
2023-03-13T09:08:27.739Z,2.50
2023-03-13T09:10:59.605Z,2.35
2023-03-13T09:13:30.939Z,4.67
2023-03-13T09:15:59.887Z,3.80
2023-03-13T09:18:28.363Z,4.22
2023-03-13T09:20:56.375Z,4.45
2023-03-13T09:23:25.213Z,4.47
2023-03-13T09:25:54.695Z,2.92
2023-03-13T09:28:23.300Z,4.35
2023-03-13T09:30:53.043Z,3.55
2023-03-13T09:33:23.805Z,4.75
2023-03-13T09:35:52.091Z,3.05
2023-03-13T09:38:21.328Z,3.75
2023-03-13T09:41:05.356Z,4.13
2023-03-13T09:43:42.148Z,3.13
2023-03-13T09:46:19.458Z,3.10
2023-03-13T09:48:52.125Z,4.25
2023-03-13T09:51:25.986Z,3.08
2023-03-13T09:53:59.433Z,3.72
2023-03-13T09:56:32.227Z,3.17
2023-03-13T09:59:04.838Z,3.90
2023-03-13T10:01:36.344Z,2.90
2023-03-13T10:04:09.394Z,3.38
2023-03-13T10:06:42.508Z,2.55
2023-03-13T10:09:20.237Z,2.50
2023-03-13T10:11:55.784Z,2.10
2023-03-13T10:14:30.974Z,2.47
2023-03-13T10:17:08.528Z,1.88
2023-03-13T10:19:38.529Z,2.60
2023-03-13T10:22:14.460Z,2.50
2023-03-13T10:24:51.676Z,3.40
2023-03-13T10:27:19.795Z,4.47
2023-03-13T10:29:47.666Z,3.45
2023-03-13T10:32:18.793Z,3.10
2023-03-13T10:34:51.431Z,2.38
2023-03-13T10:37:23.562Z,2.40
2023-03-13T10:39:51.770Z,2.30
2023-03-13T10:42:24.804Z,1.75
2023-03-13T10:44:59.446Z,3.08
2023-03-13T10:47:34.393Z,3.08
2023-03-13T10:50:04.117Z,2.60
2023-03-13T10:52:43.659Z,2.58
2023-03-13T10:55:13.754Z,2.50
2023-03-13T10:57:53.697Z,2.53
2023-03-13T11:00:31.119Z,3.80
2023-03-13T11:03:00.606Z,1.80
2023-03-13T11:05:34.538Z,1.90
2023-03-13T11:08:19.949Z,2.17
2023-03-13T11:10:59.475Z,1.80
2023-03-13T11:13:40.936Z,1.67
2023-03-13T11:16:23.436Z,2.30
2023-03-13T11:19:11.315Z,2.53
2023-03-13T11:21:49.995Z,1.83
2023-03-13T11:24:26.447Z,1.90
2023-03-13T11:27:05.351Z,2.55
2023-03-13T11:29:43.618Z,2.40
2023-03-13T11:32:23.994Z,2.33
2023-03-13T11:34:59.520Z,2.10
2023-03-13T11:37:32.552Z,2.10
2023-03-13T11:40:10.895Z,1.60
2023-03-13T11:42:53.651Z,2.03
2023-03-13T11:45:38.552Z,1.65
2023-03-13T11:48:17.248Z,3.45
2023-03-13T11:50:52.719Z,2.13
2023-03-13T11:53:52.217Z,1.83
2023-03-13T11:56:24.049Z,1.05
2023-03-13T11:59:10.341Z,1.33
2023-03-13T12:01:44.913Z,1.77
2023-03-13T12:04:21.533Z,1.48
2023-03-13T12:06:57.589Z,2.08
2023-03-13T12:09:29.775Z,2.88
2023-03-13T12:12:03.788Z,1.70
2023-03-13T12:14:37.493Z,1.30
2023-03-13T12:17:10.846Z,0.98
2023-03-13T12:19:46.040Z,2.40
2023-03-13T12:22:21.365Z,1.27
2023-03-13T12:24:56.435Z,1.92
2023-03-13T12:27:32.539Z,1.63
2023-03-13T12:30:04.498Z,1.00
2023-03-13T12:32:37.308Z,1.98
2023-03-13T12:35:16.426Z,0.90
2023-03-13T12:37:53.976Z,1.63
2023-03-13T12:40:28.403Z,0.75
2023-03-13T12:42:59.530Z,0.90
2023-03-13T12:45:29.471Z,0.90
2023-03-13T12:48:24.395Z,1.33
2023-03-13T12:51:09.763Z,2.08
2023-03-13T12:54:11.165Z,1.13
2023-03-13T12:56:50.263Z,2.35
2023-03-13T12:59:23.178Z,1.40
2023-03-13T13:01:54.584Z,1.08
2023-03-13T13:04:25.182Z,1.55
2023-03-13T13:07:01.816Z,1.70
2023-03-13T13:09:32.837Z,1.90
2023-03-13T13:12:04.200Z,1.45
2023-03-13T13:15:01.741Z,2.15
2023-03-13T13:17:55.897Z,1.10
2023-03-13T13:20:57.641Z,1.15
2023-03-13T13:23:34.978Z,1.42
2023-03-13T13:26:47.556Z,1.30
2023-03-13T13:29:54.133Z,0.95
2023-03-13T13:32:32.394Z,1.38
2023-03-13T13:35:06.346Z,1.67
2023-03-13T13:37:34.859Z,1.88
2023-03-13T13:40:22.556Z,1.77
2023-03-13T13:42:57.396Z,1.13
2023-03-13T13:45:30.625Z,0.93
2023-03-13T13:48:34.144Z,1.20
2023-03-13T13:51:25.491Z,1.13
2023-03-13T13:54:04.126Z,1.95
2023-03-13T13:56:47.944Z,1.83
2023-03-13T13:59:43.679Z,1.77
2023-03-13T14:02:22.948Z,1.65
2023-03-13T14:05:01.174Z,1.15
2023-03-13T14:07:33.584Z,1.52
2023-03-13T14:10:07.469Z,1.13
2023-03-13T14:12:36.631Z,1.27
2023-03-13T14:15:15.196Z,2.05
2023-03-13T14:17:47.128Z,1.67
2023-03-13T14:20:23.061Z,1.35
2023-03-13T14:22:53.691Z,1.63
2023-03-13T14:25:21.951Z,1.65
2023-03-13T14:27:50.729Z,1.23
2023-03-13T14:30:20.839Z,0.95
2023-03-13T14:32:51.610Z,1.33
2023-03-13T14:35:22.376Z,1.10
2023-03-13T14:37:52.310Z,1.20
2023-03-13T14:40:26.760Z,2.20
2023-03-13T14:42:57.134Z,1.60
2023-03-13T14:45:28.926Z,1.67
2023-03-13T14:48:03.634Z,2.40
2023-03-13T14:50:31.691Z,1.35
2023-03-13T14:53:05.360Z,1.35
2023-03-13T14:55:35.541Z,1.58
2023-03-13T14:58:05.445Z,1.10
2023-03-13T15:00:37.467Z,2.03
2023-03-13T15:03:31.722Z,1.13
2023-03-13T15:06:18.110Z,1.27
2023-03-13T15:08:48.034Z,1.15
2023-03-13T15:11:27.780Z,3.28
2023-03-13T15:13:56.202Z,1.05
2023-03-13T15:16:25.293Z,2.72
2023-03-13T15:18:56.218Z,2.08
2023-03-13T15:21:28.075Z,1.80
2023-03-13T15:23:59.640Z,2.77
2023-03-13T15:26:27.862Z,1.02
2023-03-13T15:28:56.285Z,2.00
2023-03-13T15:31:28.867Z,2.22
2023-03-13T15:34:00.597Z,1.25
2023-03-13T15:36:29.944Z,2.35
2023-03-13T15:38:57.729Z,1.33
2023-03-13T15:41:25.740Z,1.85
2023-03-13T15:43:55.389Z,1.52
2023-03-13T15:46:24.958Z,0.70
2023-03-13T15:48:53.962Z,1.73
2023-03-13T15:51:23.096Z,1.65
2023-03-13T15:53:53.113Z,2.10
2023-03-13T15:56:23.405Z,1.63
2023-03-13T15:58:52.088Z,2.17
2023-03-13T16:01:22.294Z,2.15
2023-03-13T16:03:50.266Z,2.58
2023-03-13T16:06:20.704Z,2.13
2023-03-13T16:08:49.911Z,2.22
2023-03-13T16:11:18.207Z,1.80
2023-03-13T16:13:46.204Z,1.67
2023-03-13T16:16:21.338Z,3.40
2023-03-13T16:18:50.263Z,3.28
2023-03-13T16:21:21.325Z,3.25
2023-03-13T16:23:50.834Z,2.08
2023-03-13T16:26:20.722Z,3.30
2023-03-13T16:28:49.248Z,4.22
2023-03-13T16:31:21.955Z,3.75
2023-03-13T16:36:23.135Z,2.17
2023-03-13T16:38:53.001Z,1.92
2023-03-13T16:41:23.017Z,2.83
2023-03-13T16:43:51.400Z,1.92
2023-03-13T16:46:21.471Z,3.65
2023-03-13T16:48:50.807Z,3.00
2023-03-13T16:51:20.385Z,2.15
2023-03-13T16:53:49.965Z,2.72
2023-03-13T16:56:24.295Z,1.23
2023-03-13T16:58:52.645Z,2.35
2023-03-13T17:01:20.659Z,1.83
2023-03-13T17:03:48.690Z,2.45
2023-03-13T17:06:18.928Z,2.88
2023-03-13T17:08:47.040Z,2.72
2023-03-13T17:11:17.970Z,4.10
2023-03-13T17:13:48.762Z,2.55
2023-03-13T17:16:18.927Z,1.83
2023-03-13T17:18:49.949Z,1.95
2023-03-13T17:21:19.797Z,2.70
2023-03-13T17:23:47.739Z,2.80
2023-03-13T17:26:18.257Z,2.00
2023-03-13T17:28:49.980Z,2.28
2023-03-13T17:31:18.580Z,2.88
2023-03-13T17:33:47.108Z,2.03
2023-03-13T17:36:20.803Z,2.83
2023-03-13T17:38:50.326Z,2.33
2023-03-13T17:41:20.539Z,3.53
2023-03-13T17:43:50.921Z,2.72
2023-03-13T17:46:21.277Z,3.05
2023-03-13T17:48:51.117Z,2.60
2023-03-13T17:51:22.753Z,2.85
2023-03-13T17:53:52.385Z,2.17
2023-03-13T17:56:21.928Z,3.58
2023-03-13T17:58:54.413Z,2.60
2023-03-13T18:01:23.625Z,2.53
2023-03-13T18:03:52.456Z,2.72
2023-03-13T18:06:23.264Z,3.75
2023-03-13T18:08:52.766Z,2.42
2023-03-13T18:11:22.190Z,3.22
2023-03-13T18:13:51.624Z,2.53
2023-03-13T18:16:23.991Z,3.28
2023-03-13T18:18:52.004Z,2.85
2023-03-13T18:21:21.083Z,3.22
2023-03-13T18:23:48.891Z,2.63
2023-03-13T18:26:30.002Z,3.28
2023-03-13T18:29:01.137Z,2.72
2023-03-13T18:31:30.559Z,4.60
2023-03-13T18:34:00.105Z,4.20
2023-03-13T18:36:28.483Z,2.30
2023-03-13T18:38:57.525Z,2.72
2023-03-13T18:41:25.736Z,3.35
2023-03-13T18:43:53.551Z,3.22
2023-03-13T18:46:26.656Z,3.45
2023-03-13T18:48:55.504Z,5.28
2023-03-13T18:51:25.733Z,3.47
2023-03-13T18:53:54.219Z,2.42
2023-03-13T18:56:24.932Z,4.57
2023-03-13T18:58:54.268Z,3.88
2023-03-13T19:01:25.639Z,3.55
2023-03-13T19:03:54.234Z,4.80
2023-03-13T19:06:25.204Z,3.95
2023-03-13T19:08:55.664Z,4.47
2023-03-13T19:11:27.150Z,5.25
2023-03-13T19:13:55.470Z,3.30
2023-03-13T19:16:30.512Z,3.83
2023-03-13T19:19:02.209Z,3.90
2023-03-13T19:21:31.927Z,3.88
2023-03-13T19:24:00.187Z,6.43
2023-03-13T19:26:33.093Z,5.13
2023-03-13T19:29:00.981Z,3.78
2023-03-13T19:31:30.106Z,3.70
2023-03-13T19:33:58.030Z,3.60
2023-03-13T19:36:30.239Z,2.92
2023-03-13T19:38:58.350Z,3.50
2023-03-13T19:41:26.120Z,3.97
2023-03-13T19:43:53.923Z,3.30
2023-03-13T19:46:25.546Z,4.93
2023-03-13T19:48:56.554Z,4.65
2023-03-13T19:51:25.548Z,3.35
2023-03-13T19:53:53.726Z,4.60
2023-03-13T19:56:23.713Z,3.53
2023-03-13T19:58:53.305Z,4.22
2023-03-13T20:01:21.194Z,4.22
2023-03-13T20:03:49.107Z,4.97
2023-03-13T20:06:20.481Z,5.45
2023-03-13T20:08:48.461Z,5.38
2023-03-13T20:11:17.488Z,4.20
2023-03-13T20:13:45.543Z,6.07
2023-03-13T20:16:13.497Z,3.60
2023-03-13T20:18:43.298Z,3.90
2023-03-13T20:21:11.741Z,4.60
2023-03-13T20:23:40.931Z,5.70
2023-03-13T20:26:11.806Z,4.55
2023-03-13T20:28:41.015Z,3.75
2023-03-13T20:31:09.529Z,3.50
2023-03-13T20:33:38.049Z,2.88
2023-03-13T20:36:08.175Z,4.53
2023-03-13T20:38:36.341Z,4.22
2023-03-13T20:41:06.278Z,2.92
2023-03-13T20:43:34.770Z,2.75
2023-03-13T20:46:03.200Z,3.40
2023-03-13T20:48:31.281Z,4.18
2023-03-13T20:51:01.997Z,2.83
2023-03-13T20:53:30.034Z,2.17
2023-03-13T20:55:57.918Z,2.70
2023-03-13T20:58:27.231Z,2.17
2023-03-13T21:00:58.893Z,3.38
2023-03-13T21:03:26.979Z,3.10
2023-03-13T21:05:54.976Z,4.53
2023-03-13T21:08:22.884Z,3.60
2023-03-13T21:10:50.928Z,2.67
2023-03-13T21:13:18.847Z,2.45
2023-03-13T21:15:48.008Z,2.53
2023-03-13T21:18:15.978Z,2.83
2023-03-13T21:20:43.749Z,3.75
2023-03-13T21:23:16.575Z,2.58
2023-03-13T21:25:47.599Z,3.60
2023-03-13T21:28:17.965Z,2.90
2023-03-13T21:30:45.852Z,3.25
2023-03-13T21:33:14.964Z,3.65
2023-03-13T21:35:42.946Z,3.33
2023-03-13T21:38:10.750Z,2.75
2023-03-13T21:40:40.252Z,4.05
2023-03-13T21:43:08.253Z,3.45
2023-03-13T21:45:36.166Z,4.80
2023-03-13T21:48:04.548Z,2.17
2023-03-13T21:50:33.836Z,2.42
2023-03-13T21:53:01.721Z,3.20
2023-03-13T21:55:29.499Z,4.03
2023-03-13T21:57:57.338Z,3.10
2023-03-13T22:00:25.244Z,2.85
2023-03-13T22:02:52.971Z,3.30
2023-03-13T22:05:22.340Z,4.05
2023-03-13T22:07:51.400Z,3.83
2023-03-13T22:10:19.407Z,2.67
2023-03-13T22:12:47.165Z,3.38
2023-03-13T22:15:14.911Z,4.32
2023-03-13T22:17:42.678Z,2.60
2023-03-13T22:20:11.625Z,2.38
2023-03-13T22:22:39.327Z,3.72
2023-03-13T22:25:09.452Z,2.60
2023-03-13T22:27:37.185Z,4.05
2023-03-13T22:30:05.943Z,3.53
2023-03-13T22:32:33.751Z,3.13
2023-03-13T22:35:01.510Z,2.72
2023-03-13T22:37:29.366Z,2.22
2023-03-13T22:39:57.151Z,3.25
2023-03-13T22:42:26.921Z,5.72
2023-03-13T22:44:55.721Z,3.42
2023-03-13T22:47:24.650Z,2.72
2023-03-13T22:49:53.723Z,3.40
2023-03-13T22:52:22.157Z,3.50
2023-03-13T22:54:49.937Z,2.15
2023-03-13T22:57:17.700Z,2.10
2023-03-13T22:59:46.828Z,3.35
2023-03-13T23:02:14.590Z,2.97
2023-03-13T23:04:42.429Z,2.63
2023-03-13T23:07:10.117Z,2.40
2023-03-13T23:09:37.856Z,2.30
2023-03-13T23:12:05.919Z,3.90
2023-03-13T23:14:33.783Z,2.92
2023-03-13T23:17:03.297Z,3.95
2023-03-13T23:19:34.211Z,2.83
2023-03-13T23:22:02.128Z,3.13
2023-03-13T23:24:30.455Z,2.78
2023-03-13T23:26:58.370Z,3.58
2023-03-13T23:29:26.086Z,3.78
2023-03-13T23:31:53.874Z,2.88
2023-03-13T23:34:23.044Z,2.42
2023-03-13T23:36:50.924Z,2.22
2023-03-13T23:39:18.662Z,4.93
2023-03-13T23:41:46.392Z,3.35
2023-03-13T23:44:14.127Z,3.55
2023-03-13T23:46:41.890Z,2.35
2023-03-13T23:49:09.681Z,1.60
2023-03-13T23:51:38.811Z,3.13
2023-03-13T23:54:06.666Z,3.80
2023-03-13T23:56:34.999Z,2.65
2023-03-13T23:59:02.747Z,2.22
